createdAt,value
2019-04-04T00:01:18.561Z,49.55
2019-04-04T00:03:47.034Z,50.60
2019-04-04T00:06:15.532Z,49.95
2019-04-04T00:08:44.062Z,53.40
2019-04-04T00:11:14.216Z,51.45
2019-04-04T00:13:42.689Z,54.23
2019-04-04T00:16:11.157Z,52.08
2019-04-04T00:18:39.636Z,49.63
2019-04-04T00:21:08.103Z,50.48
2019-04-04T00:23:38.030Z,48.78
2019-04-04T00:26:07.049Z,50.05
2019-04-04T00:28:35.512Z,52.75
2019-04-04T00:31:04.042Z,46.90
2019-04-04T00:33:32.578Z,42.15
2019-04-04T00:36:02.758Z,45.12
2019-04-04T00:38:31.319Z,48.20
2019-04-04T00:40:59.804Z,41.88
2019-04-04T00:43:28.263Z,37.98
2019-04-04T00:45:56.752Z,37.50
2019-04-04T00:48:25.210Z,33.73
2019-04-04T00:50:53.693Z,32.70
2019-04-04T00:53:22.236Z,31.75
2019-04-04T00:55:50.764Z,31.12
2019-04-04T00:58:20.829Z,25.48
2019-04-04T01:00:49.558Z,31.87
2019-04-04T01:03:18.078Z,31.97
2019-04-04T01:05:46.562Z,28.00
2019-04-04T01:08:15.105Z,30.52
2019-04-04T01:10:43.571Z,32.67
2019-04-04T01:13:12.034Z,31.25
2019-04-04T01:15:40.657Z,30.00
2019-04-04T01:18:09.135Z,32.40
2019-04-04T01:20:37.596Z,30.52
2019-04-04T01:23:06.157Z,30.52
2019-04-04T01:25:34.790Z,26.95
2019-04-04T01:28:03.270Z,26.40
2019-04-04T01:30:31.809Z,22.13
2019-04-04T01:33:00.274Z,20.80
2019-04-04T01:35:28.737Z,20.68
2019-04-04T01:37:58.235Z,19.98
2019-04-04T01:40:27.284Z,18.67
2019-04-04T01:42:55.758Z,18.27
2019-04-04T01:45:24.247Z,19.45
2019-04-04T01:47:52.701Z,18.62
2019-04-04T01:50:22.903Z,16.62
2019-04-04T01:52:51.360Z,17.20
2019-04-04T01:55:19.849Z,18.37
2019-04-04T01:57:48.391Z,18.17
2019-04-04T02:00:17.000Z,16.05
2019-04-04T02:02:45.473Z,16.97
2019-04-04T02:05:13.995Z,17.35
2019-04-04T02:07:42.463Z,17.65
2019-04-04T02:10:11.395Z,14.75
2019-04-04T02:12:39.873Z,16.42
2019-04-04T02:15:13.930Z,14.38
2019-04-04T02:17:42.137Z,17.10
2019-04-04T02:20:10.749Z,17.55
2019-04-04T02:22:39.236Z,16.17
2019-04-04T02:25:08.096Z,16.17
2019-04-04T02:27:37.939Z,15.28
2019-04-04T02:30:07.525Z,12.98
2019-04-04T02:32:36.017Z,15.83
2019-04-04T02:35:10.040Z,16.52
2019-04-04T02:37:36.629Z,15.65
2019-04-04T02:40:09.158Z,16.42
2019-04-04T02:42:39.189Z,15.68
2019-04-04T02:45:08.645Z,14.07
2019-04-04T02:47:37.094Z,15.90
2019-04-04T02:50:07.100Z,13.03
2019-04-04T02:52:35.621Z,15.50
2019-04-04T02:55:04.829Z,18.17
2019-04-04T02:57:33.279Z,16.65
2019-04-04T03:00:01.964Z,16.82
2019-04-04T03:02:30.397Z,17.57
2019-04-04T03:04:58.962Z,14.28
2019-04-04T03:07:30.107Z,14.47
2019-04-04T03:09:57.837Z,15.53
2019-04-04T03:12:26.985Z,16.30
2019-04-04T03:14:55.679Z,16.50
2019-04-04T03:17:25.737Z,16.77
2019-04-04T03:19:54.284Z,18.62
2019-04-04T03:22:24.590Z,18.02
2019-04-04T03:24:52.999Z,17.23
2019-04-04T03:27:25.454Z,18.87
2019-04-04T03:29:51.778Z,16.65
2019-04-04T03:32:20.256Z,17.70
2019-04-04T03:34:51.174Z,18.32
2019-04-04T03:37:19.039Z,18.35
2019-04-04T03:39:51.914Z,18.70
2019-04-04T03:42:17.710Z,18.17
2019-04-04T03:44:46.217Z,18.90
2019-04-04T03:47:14.649Z,18.95
2019-04-04T03:49:43.142Z,19.12
2019-04-04T03:52:11.715Z,18.42
2019-04-04T03:54:41.075Z,16.65
2019-04-04T03:57:12.226Z,17.00
2019-04-04T03:59:39.765Z,17.90
2019-04-04T04:02:08.251Z,18.02
2019-04-04T04:05:00.506Z,17.82
2019-04-04T04:07:26.225Z,19.10
2019-04-04T04:09:59.278Z,17.20
2019-04-04T04:12:24.917Z,13.65
2019-04-04T04:14:54.776Z,16.00
2019-04-04T04:17:23.718Z,17.52
2019-04-04T04:19:52.357Z,16.25
2019-04-04T04:22:20.821Z,21.17
2019-04-04T04:24:51.865Z,23.25
2019-04-04T04:27:20.335Z,19.35
2019-04-04T04:29:48.793Z,22.35
2019-04-04T04:32:21.274Z,21.97
2019-04-04T04:34:47.545Z,25.10
2019-04-04T04:37:19.855Z,21.40
2019-04-04T04:39:46.285Z,20.40
2019-04-04T04:42:14.746Z,23.75
2019-04-04T04:44:43.219Z,24.10
2019-04-04T04:47:11.680Z,22.95
2019-04-04T04:49:40.173Z,23.45
2019-04-04T04:52:08.691Z,23.35
2019-04-04T04:54:37.180Z,22.70
2019-04-04T04:57:05.643Z,22.30
2019-04-04T04:59:34.146Z,24.23
2019-04-04T05:02:02.740Z,23.18
2019-04-04T05:04:31.225Z,23.98
2019-04-04T05:06:59.751Z,24.35
2019-04-04T05:09:28.261Z,24.47
2019-04-04T05:11:56.729Z,27.80
2019-04-04T05:14:25.194Z,28.07
2019-04-04T05:16:53.681Z,25.57
2019-04-04T05:19:22.211Z,28.02
2019-04-04T05:21:50.715Z,27.00
2019-04-04T05:24:19.165Z,23.98
2019-04-04T05:26:47.676Z,27.87
2019-04-04T05:29:16.131Z,27.77
2019-04-04T05:31:44.613Z,25.68
2019-04-04T05:34:13.130Z,28.57
2019-04-04T05:36:41.633Z,25.97
2019-04-04T05:39:10.094Z,23.67
2019-04-04T05:41:38.580Z,25.90
2019-04-04T05:44:09.066Z,22.25
2019-04-04T05:46:38.412Z,22.13
2019-04-04T05:49:08.310Z,22.70
2019-04-04T05:51:37.055Z,23.60
2019-04-04T05:54:46.578Z,24.57
2019-04-04T05:57:15.082Z,22.60
2019-04-04T05:59:43.601Z,23.65
2019-04-04T06:02:12.221Z,24.12
2019-04-04T06:04:41.224Z,25.77
2019-04-04T06:07:09.706Z,21.37
2019-04-04T06:09:38.175Z,22.87
2019-04-04T06:12:06.729Z,21.80
2019-04-04T06:14:35.206Z,21.90
2019-04-04T06:17:05.094Z,23.02
2019-04-04T06:19:33.982Z,22.22
2019-04-04T06:22:02.535Z,23.83
2019-04-04T06:24:31.001Z,24.25
2019-04-04T06:26:59.557Z,24.35
2019-04-04T06:29:28.021Z,26.60
2019-04-04T06:31:59.988Z,25.37
2019-04-04T06:34:28.305Z,26.15
2019-04-04T06:36:56.793Z,23.47
2019-04-04T06:39:25.798Z,26.97
2019-04-04T06:41:54.339Z,27.45
2019-04-04T06:44:22.882Z,27.60
2019-04-04T06:46:53.468Z,27.10
2019-04-04T06:49:21.701Z,24.35
2019-04-04T06:51:50.191Z,24.02
2019-04-04T06:54:18.683Z,23.42
2019-04-04T06:56:47.168Z,22.85
2019-04-04T06:59:15.644Z,23.60
2019-04-04T07:01:44.147Z,22.35
2019-04-04T07:04:12.620Z,26.90
2019-04-04T07:06:41.979Z,25.17
2019-04-04T07:09:13.365Z,24.02
2019-04-04T07:11:41.170Z,21.93
2019-04-04T07:14:09.644Z,26.62
2019-04-04T07:16:38.104Z,24.10
2019-04-04T07:19:08.047Z,26.77
2019-04-04T07:21:36.746Z,23.98
2019-04-04T07:24:05.404Z,23.90
2019-04-04T07:26:33.863Z,22.75
2019-04-04T07:29:03.882Z,23.52
2019-04-04T07:31:33.947Z,22.10
2019-04-04T07:34:02.642Z,22.85
2019-04-04T07:36:33.171Z,24.43
2019-04-04T07:39:04.714Z,24.37
2019-04-04T07:41:33.192Z,23.18
2019-04-04T07:44:05.685Z,22.60
2019-04-04T07:46:45.373Z,23.87
2019-04-04T07:49:11.450Z,23.20
2019-04-04T07:51:39.925Z,21.57
2019-04-04T07:54:08.421Z,23.00
2019-04-04T07:56:37.077Z,20.95
2019-04-04T07:59:05.601Z,19.45
2019-04-04T08:01:34.129Z,20.35
2019-04-04T08:04:02.600Z,19.35
2019-04-04T08:06:31.158Z,20.30
2019-04-04T08:09:02.799Z,18.45
2019-04-04T08:11:32.683Z,18.75
2019-04-04T08:14:01.219Z,19.50
2019-04-04T08:16:29.891Z,19.07
2019-04-04T08:18:58.404Z,18.17
2019-04-04T08:21:26.872Z,18.67
2019-04-04T08:23:55.354Z,18.48
2019-04-04T08:26:23.836Z,18.42
2019-04-04T08:28:52.361Z,18.02
2019-04-04T08:31:22.346Z,19.23
2019-04-04T08:33:50.836Z,17.25
2019-04-04T08:36:19.304Z,18.32
2019-04-04T08:38:52.200Z,18.45
2019-04-04T08:41:20.907Z,17.50
2019-04-04T08:43:49.381Z,17.00
2019-04-04T08:46:19.838Z,18.50
2019-04-04T08:48:48.489Z,17.95
2019-04-04T08:51:16.964Z,17.55
2019-04-04T08:53:45.677Z,16.45
2019-04-04T08:56:14.160Z,18.70
2019-04-04T08:58:42.653Z,17.20
2019-04-04T09:01:11.181Z,17.12
2019-04-04T09:03:39.691Z,18.12
2019-04-04T09:06:08.162Z,17.02
2019-04-04T09:08:36.691Z,17.65
2019-04-04T09:11:05.235Z,16.02
2019-04-04T09:13:33.808Z,16.48
2019-04-04T09:16:02.355Z,17.62
2019-04-04T09:18:30.930Z,18.12
2019-04-04T09:20:59.392Z,18.10
2019-04-04T09:23:29.419Z,17.15
2019-04-04T09:26:05.523Z,16.07
2019-04-04T09:28:28.238Z,18.23
2019-04-04T09:30:56.699Z,18.12
2019-04-04T09:33:25.177Z,19.77
2019-04-04T09:35:53.815Z,15.72
2019-04-04T09:38:22.358Z,17.73
2019-04-04T09:40:50.973Z,18.00
2019-04-04T09:43:19.449Z,17.73
2019-04-04T09:45:47.995Z,18.02
2019-04-04T09:48:19.505Z,18.23
2019-04-04T09:50:47.962Z,17.52
2019-04-04T09:53:16.457Z,18.52
2019-04-04T09:55:44.965Z,18.48
2019-04-04T09:58:13.464Z,17.75
2019-04-04T10:00:42.163Z,18.95
2019-04-04T10:03:10.736Z,18.73
2019-04-04T10:05:39.225Z,17.23
2019-04-04T10:08:08.087Z,17.98
2019-04-04T10:10:36.629Z,19.37
2019-04-04T10:13:05.251Z,18.07
2019-04-04T10:15:33.726Z,17.52
2019-04-04T10:18:02.281Z,17.17
2019-04-04T10:20:30.756Z,18.65
2019-04-04T10:22:59.238Z,18.57
2019-04-04T10:25:29.354Z,18.95
2019-04-04T10:27:57.935Z,18.67
2019-04-04T10:30:26.472Z,16.35
2019-04-04T10:32:54.962Z,19.55
2019-04-04T10:35:23.510Z,19.55
2019-04-04T10:37:52.046Z,19.23
2019-04-04T10:40:20.672Z,19.20
2019-04-04T10:42:49.131Z,17.05
2019-04-04T10:45:17.751Z,18.32
2019-04-04T10:47:46.282Z,19.85
2019-04-04T10:50:15.620Z,18.82
2019-04-04T10:52:44.152Z,18.90
2019-04-04T10:55:13.062Z,18.40
2019-04-04T10:57:41.535Z,18.57
2019-04-04T11:00:10.860Z,18.20
2019-04-04T11:02:39.462Z,17.92
2019-04-04T11:05:08.074Z,18.15
2019-04-04T11:07:36.568Z,17.55
2019-04-04T11:10:07.266Z,19.90
2019-04-04T11:12:35.801Z,19.65
2019-04-04T11:15:10.766Z,16.40
2019-04-04T11:17:39.257Z,20.32
2019-04-04T11:20:07.960Z,17.35
2019-04-04T11:22:41.243Z,20.10
2019-04-04T11:25:09.952Z,19.82
2019-04-04T11:27:38.516Z,18.57
2019-04-04T11:30:15.434Z,18.07
2019-04-04T11:32:40.876Z,19.75
2019-04-04T11:35:11.240Z,19.23
2019-04-04T11:37:39.731Z,19.82
2019-04-04T11:40:08.539Z,18.32
2019-04-04T11:42:37.289Z,20.05
2019-04-04T11:45:06.214Z,19.35
2019-04-04T11:47:34.730Z,17.27
2019-04-04T11:50:03.948Z,17.60
2019-04-04T11:52:32.431Z,18.37
2019-04-04T11:55:01.688Z,19.00
2019-04-04T11:57:30.186Z,18.73
2019-04-04T11:59:58.647Z,17.55
2019-04-04T12:02:28.628Z,17.02
2019-04-04T12:04:57.918Z,17.32
2019-04-04T12:07:26.451Z,15.30
2019-04-04T12:10:06.879Z,17.17
2019-04-04T12:12:25.229Z,17.65
2019-04-04T12:14:53.839Z,16.67
2019-04-04T12:17:22.303Z,17.70
2019-04-04T12:19:52.332Z,18.80
2019-04-04T12:22:20.800Z,19.65
2019-04-04T12:24:49.535Z,19.85
2019-04-04T12:27:18.015Z,19.32
2019-04-04T12:29:48.683Z,18.30
2019-04-04T12:32:17.196Z,18.85
2019-04-04T12:34:45.998Z,21.12
2019-04-04T12:37:14.497Z,19.65
2019-04-04T12:39:45.167Z,19.35
2019-04-04T12:42:13.717Z,18.70
2019-04-04T12:44:42.203Z,16.40
2019-04-04T12:47:10.667Z,18.17
2019-04-04T12:49:41.223Z,17.45
2019-04-04T12:52:11.231Z,19.77
2019-04-04T12:54:39.723Z,20.10
2019-04-04T12:57:08.194Z,17.48
2019-04-04T12:59:36.689Z,18.05
2019-04-04T13:02:05.615Z,19.62
2019-04-04T13:04:34.080Z,21.50
2019-04-04T13:07:02.619Z,22.48
2019-04-04T13:09:31.079Z,22.87
2019-04-04T13:11:59.583Z,21.00
2019-04-04T13:14:29.579Z,23.02
2019-04-04T13:16:58.203Z,22.00
2019-04-04T13:19:26.699Z,23.18
2019-04-04T13:21:56.588Z,27.07
2019-04-04T13:24:25.063Z,24.15
2019-04-04T13:26:58.384Z,25.85
2019-04-04T13:29:26.947Z,27.58
2019-04-04T13:31:58.429Z,24.70
2019-04-04T13:34:29.707Z,24.80
2019-04-04T13:36:58.337Z,25.60
2019-04-04T13:39:26.837Z,28.80
2019-04-04T13:41:55.307Z,26.77
2019-04-04T13:44:26.847Z,26.80
2019-04-04T13:46:55.373Z,29.60
2019-04-04T13:49:24.599Z,24.95
2019-04-04T13:51:53.719Z,27.27
2019-04-04T13:54:23.853Z,24.98
2019-04-04T13:56:52.874Z,26.73
2019-04-04T13:59:23.906Z,28.38
2019-04-04T14:01:52.393Z,25.48
2019-04-04T14:04:24.456Z,28.17
2019-04-04T14:06:51.164Z,31.07
2019-04-04T14:09:19.719Z,28.62
2019-04-04T14:11:48.274Z,27.02
2019-04-04T14:14:16.793Z,30.68
2019-04-04T14:16:45.261Z,31.55
2019-04-04T14:19:13.772Z,35.23
2019-04-04T14:21:42.387Z,35.85
2019-04-04T14:24:13.853Z,31.90
2019-04-04T14:26:41.092Z,31.35
2019-04-04T14:29:09.565Z,31.20
2019-04-04T14:31:38.062Z,33.75
2019-04-04T14:34:06.567Z,33.53
2019-04-04T14:36:41.948Z,36.15
2019-04-04T14:39:10.432Z,34.25
2019-04-04T14:41:38.922Z,35.98
2019-04-04T14:44:07.424Z,37.15
2019-04-04T14:46:39.342Z,36.42
2019-04-04T14:49:07.706Z,32.83
2019-04-04T14:51:36.200Z,35.88
2019-04-04T14:54:06.248Z,36.40
2019-04-04T14:56:34.744Z,30.10
2019-04-04T14:59:06.084Z,32.55
2019-04-04T15:01:35.152Z,30.75
2019-04-04T15:04:03.849Z,34.20
2019-04-04T15:06:32.333Z,35.40
2019-04-04T15:09:01.357Z,34.60
2019-04-04T15:11:31.371Z,33.28
2019-04-04T15:14:02.901Z,31.40
2019-04-04T15:16:32.699Z,34.85
2019-04-04T15:19:01.273Z,35.33
2019-04-04T15:21:29.841Z,29.92
2019-04-04T15:23:58.302Z,32.23
2019-04-04T15:26:26.955Z,33.95
2019-04-04T15:28:55.783Z,33.95
2019-04-04T15:31:24.228Z,36.10
2019-04-04T15:33:52.709Z,32.53
2019-04-04T15:36:21.329Z,36.93
2019-04-04T15:38:49.839Z,32.35
2019-04-04T15:41:18.379Z,36.93
2019-04-04T15:43:46.846Z,37.55
2019-04-04T15:46:15.705Z,33.98
2019-04-04T15:48:47.231Z,35.38
2019-04-04T15:51:15.791Z,35.25
2019-04-04T15:53:44.309Z,35.48
2019-04-04T15:56:16.783Z,37.65
2019-04-04T15:58:45.295Z,36.93
2019-04-04T16:01:13.764Z,36.00
2019-04-04T16:03:42.266Z,40.43
2019-04-04T16:06:10.755Z,36.42
2019-04-04T16:08:39.309Z,41.05
2019-04-04T16:14:28.199Z,40.98
2019-04-04T16:16:56.668Z,40.80
2019-04-04T16:19:25.186Z,43.42
2019-04-04T16:21:53.673Z,43.40
2019-04-04T16:24:23.683Z,41.80
2019-04-04T16:26:52.208Z,39.18
2019-04-04T16:29:24.801Z,44.15
2019-04-04T16:31:53.359Z,39.42
2019-04-04T16:34:21.867Z,40.78
2019-04-04T16:36:50.436Z,41.60
2019-04-04T16:39:18.997Z,39.13
2019-04-04T16:41:47.447Z,41.10
2019-04-04T16:44:16.516Z,39.20
2019-04-04T16:46:45.013Z,45.17
2019-04-04T16:49:13.522Z,41.83
2019-04-04T16:51:42.008Z,42.40
2019-04-04T16:54:10.482Z,40.45
2019-04-04T16:56:44.287Z,36.53
2019-04-04T16:59:12.819Z,38.38
2019-04-04T17:01:41.354Z,41.95
2019-04-04T17:04:09.907Z,45.15
2019-04-04T17:06:38.384Z,44.38
2019-04-04T17:09:08.003Z,41.83
2019-04-04T17:11:41.359Z,41.33
2019-04-04T17:14:09.509Z,44.55
2019-04-04T17:16:38.079Z,43.08
2019-04-04T17:19:06.639Z,43.10
2019-04-04T17:21:35.216Z,43.78
2019-04-04T17:24:03.782Z,43.63
2019-04-04T17:26:33.819Z,43.92
2019-04-04T17:29:02.316Z,44.53
2019-04-04T17:31:30.855Z,43.08
2019-04-04T17:33:59.736Z,42.95
2019-04-04T17:36:31.618Z,34.90
2019-04-04T17:39:00.648Z,41.33
2019-04-04T17:41:29.203Z,38.53
2019-04-04T17:44:02.326Z,37.93
2019-04-04T17:46:32.357Z,39.18
2019-04-04T17:49:01.068Z,38.65
2019-04-04T17:51:29.675Z,36.58
2019-04-04T17:53:58.295Z,39.23
2019-04-04T17:56:27.248Z,41.37
2019-04-04T17:59:00.200Z,40.05
2019-04-04T18:01:26.455Z,43.25
2019-04-04T18:03:54.963Z,42.38
2019-04-04T18:06:31.255Z,42.70
2019-04-04T18:09:02.236Z,41.25
2019-04-04T18:11:33.636Z,39.23
2019-04-04T18:14:02.188Z,40.38
2019-04-04T18:16:33.403Z,40.65
2019-04-04T18:19:02.082Z,45.95
2019-04-04T18:21:30.652Z,42.55
2019-04-04T18:23:59.190Z,44.40
2019-04-04T18:26:27.767Z,39.60
2019-04-04T18:28:56.265Z,39.75
2019-04-04T18:31:24.933Z,36.38
2019-04-04T18:33:53.895Z,33.15
2019-04-04T18:36:25.964Z,31.00
2019-04-04T18:38:54.468Z,27.07
2019-04-04T18:41:23.022Z,24.50
2019-04-04T18:43:53.607Z,24.07
2019-04-04T18:46:23.639Z,24.70
2019-04-04T18:48:52.165Z,21.25
2019-04-04T18:51:20.780Z,22.55
2019-04-04T18:53:49.335Z,22.22
2019-04-04T18:56:17.858Z,20.62
2019-04-04T18:58:47.962Z,20.55
2019-04-04T19:01:16.615Z,18.25
2019-04-04T19:03:48.444Z,18.17
2019-04-04T19:06:19.883Z,17.50
2019-04-04T19:08:50.577Z,17.65
2019-04-04T19:11:18.704Z,17.62
2019-04-04T19:13:47.207Z,17.10
2019-04-04T19:16:15.722Z,18.12
2019-04-04T19:18:44.201Z,18.57
2019-04-04T19:21:12.852Z,18.48
2019-04-04T19:23:49.037Z,16.17
2019-04-04T19:26:14.469Z,17.05
2019-04-04T19:28:51.593Z,15.08
2019-04-04T19:31:17.626Z,16.37
2019-04-04T19:33:45.729Z,17.12
2019-04-04T19:36:14.277Z,17.95
2019-04-04T19:38:42.844Z,19.23
2019-04-04T19:41:11.393Z,20.52
2019-04-04T19:43:39.882Z,21.48
2019-04-04T19:46:08.491Z,19.25
2019-04-04T19:48:37.007Z,18.15
2019-04-04T19:51:15.640Z,19.62
2019-04-04T19:53:44.126Z,17.23
2019-04-04T19:56:12.659Z,18.35
2019-04-04T19:58:44.247Z,18.02
2019-04-04T20:01:12.810Z,21.77
2019-04-04T20:03:41.311Z,19.95
2019-04-04T20:06:09.808Z,19.85
2019-04-04T20:08:38.305Z,19.25
2019-04-04T20:11:06.774Z,18.50
2019-04-04T20:13:35.251Z,18.62
2019-04-04T20:16:05.258Z,18.55
2019-04-04T20:18:33.826Z,19.17
2019-04-04T20:21:05.647Z,20.45
2019-04-04T20:23:34.125Z,18.48
2019-04-04T20:26:02.709Z,19.45
2019-04-04T20:28:32.691Z,19.00
2019-04-04T20:31:01.261Z,19.32
2019-04-04T20:33:29.758Z,19.07
2019-04-04T20:36:00.355Z,21.35
2019-04-04T20:38:28.885Z,19.42
2019-04-04T20:40:58.872Z,21.52
2019-04-04T20:43:27.360Z,21.60
2019-04-04T20:45:57.497Z,21.48
2019-04-04T20:48:26.047Z,21.87
2019-04-04T20:50:55.602Z,23.75
2019-04-04T20:53:24.041Z,22.07
2019-04-04T20:55:52.549Z,24.47
2019-04-04T20:58:21.027Z,25.00
2019-04-04T21:00:49.532Z,26.40
2019-04-04T21:03:18.016Z,24.55
2019-04-04T21:05:46.585Z,25.88
2019-04-04T21:08:15.047Z,21.95
2019-04-04T21:10:43.593Z,20.80
2019-04-04T21:13:12.118Z,22.82
2019-04-04T21:15:40.589Z,22.90
2019-04-04T21:18:09.116Z,23.80
2019-04-04T21:20:37.586Z,22.82
2019-04-04T21:23:06.167Z,25.17
2019-04-04T21:25:34.614Z,25.55
2019-04-04T21:28:03.103Z,23.67
2019-04-04T21:30:31.570Z,26.75
2019-04-04T21:33:00.354Z,26.15
2019-04-04T21:35:28.824Z,27.87
2019-04-04T21:37:59.810Z,27.05
2019-04-04T21:40:27.970Z,27.13
2019-04-04T21:42:56.535Z,25.92
2019-04-04T21:45:25.181Z,25.72
2019-04-04T21:47:53.716Z,26.97
2019-04-04T21:50:22.196Z,27.52
2019-04-04T21:52:50.711Z,28.07
2019-04-04T21:55:22.128Z,27.27
2019-04-04T21:57:50.638Z,28.52
2019-04-04T22:00:21.857Z,27.13
2019-04-04T22:02:53.647Z,28.23
2019-04-04T22:05:22.234Z,23.30
2019-04-04T22:07:50.716Z,23.70
2019-04-04T22:10:19.319Z,29.37
2019-04-04T22:12:47.881Z,28.92
2019-04-04T22:15:16.389Z,29.05
2019-04-04T22:17:44.907Z,31.12
2019-04-04T22:20:13.578Z,31.25
2019-04-04T22:22:42.149Z,32.48
2019-04-04T22:25:12.349Z,35.00
2019-04-04T22:27:40.964Z,33.10
2019-04-04T22:30:09.924Z,37.25
2019-04-04T22:32:38.480Z,40.67
2019-04-04T22:35:07.123Z,39.65
2019-04-04T22:37:36.184Z,41.63
2019-04-04T22:40:08.614Z,41.85
2019-04-04T22:42:37.118Z,38.17
2019-04-04T22:45:08.004Z,40.48
2019-04-04T22:47:36.796Z,40.65
2019-04-04T22:50:06.915Z,45.98
2019-04-04T22:52:35.451Z,44.67
2019-04-04T22:55:04.185Z,42.20
2019-04-04T22:57:32.665Z,45.67
2019-04-04T23:00:02.804Z,43.78
2019-04-04T23:02:31.375Z,45.73
2019-04-04T23:05:01.535Z,44.45
2019-04-04T23:07:32.789Z,46.65
2019-04-04T23:10:01.302Z,46.73
2019-04-04T23:12:32.424Z,49.05
2019-04-04T23:15:00.860Z,49.05
2019-04-04T23:17:29.369Z,49.53
2019-04-04T23:19:57.936Z,50.52
2019-04-04T23:22:26.440Z,51.30
2019-04-04T23:24:55.201Z,48.40
2019-04-04T23:27:23.846Z,46.68
2019-04-04T23:29:52.446Z,45.43
2019-04-04T23:32:22.480Z,43.65
2019-04-04T23:34:51.118Z,47.48
2019-04-04T23:37:19.603Z,51.90
2019-04-04T23:39:48.181Z,48.28
2019-04-04T23:42:18.341Z,47.35
2019-04-04T23:44:46.861Z,47.13
2019-04-04T23:47:15.380Z,48.15
2019-04-04T23:49:45.451Z,46.15
2019-04-04T23:52:15.549Z,47.25
2019-04-04T23:54:44.322Z,51.65
2019-04-04T23:57:12.807Z,48.30
2019-04-04T23:59:44.268Z,51.42
